sensor_id;sensor_type;location;lat;lon;timestamp;P1;durP1;ratioP1;P2;durP2;ratioP2
12631;SDS011;6381;45.748;12.106;2022-08-07T00:01:24;3.58;;;2.90;;
12631;SDS011;6381;45.748;12.106;2022-08-07T00:04:14;2.85;;;2.58;;
12631;SDS011;6381;45.748;12.106;2022-08-07T00:06:49;2.95;;;2.60;;
12631;SDS011;6381;45.748;12.106;2022-08-07T00:09:18;3.55;;;3.08;;
12631;SDS011;6381;45.748;12.106;2022-08-07T00:12:01;3.67;;;2.90;;
12631;SDS011;6381;45.748;12.106;2022-08-07T00:14:30;3.45;;;2.75;;
12631;SDS011;6381;45.748;12.106;2022-08-07T00:16:59;3.53;;;2.53;;
12631;SDS011;6381;45.748;12.106;2022-08-07T00:19:30;4.10;;;2.95;;
12631;SDS011;6381;45.748;12.106;2022-08-07T00:22:19;3.13;;;2.70;;
12631;SDS011;6381;45.748;12.106;2022-08-07T00:25:01;4.30;;;2.80;;
12631;SDS011;6381;45.748;12.106;2022-08-07T00:27:32;3.47;;;2.70;;
12631;SDS011;6381;45.748;12.106;2022-08-07T00:30:19;4.35;;;2.70;;
12631;SDS011;6381;45.748;12.106;2022-08-07T00:32:54;3.03;;;2.72;;
12631;SDS011;6381;45.748;12.106;2022-08-07T00:35:25;3.55;;;2.95;;
12631;SDS011;6381;45.748;12.106;2022-08-07T00:37:56;3.00;;;2.63;;
12631;SDS011;6381;45.748;12.106;2022-08-07T00:40:24;3.65;;;2.70;;
12631;SDS011;6381;45.748;12.106;2022-08-07T00:43:05;3.20;;;2.90;;
12631;SDS011;6381;45.748;12.106;2022-08-07T00:45:55;2.88;;;2.60;;
12631;SDS011;6381;45.748;12.106;2022-08-07T00:48:25;2.92;;;2.58;;
12631;SDS011;6381;45.748;12.106;2022-08-07T00:50:59;3.85;;;2.60;;
12631;SDS011;6381;45.748;12.106;2022-08-07T00:53:28;2.70;;;2.40;;
12631;SDS011;6381;45.748;12.106;2022-08-07T00:56:16;3.13;;;2.70;;
12631;SDS011;6381;45.748;12.106;2022-08-07T00:58:47;3.03;;;2.45;;
12631;SDS011;6381;45.748;12.106;2022-08-07T01:01:16;2.67;;;2.47;;
12631;SDS011;6381;45.748;12.106;2022-08-07T01:03:47;3.28;;;2.53;;
12631;SDS011;6381;45.748;12.106;2022-08-07T01:06:24;2.60;;;2.40;;
12631;SDS011;6381;45.748;12.106;2022-08-07T01:08:55;2.72;;;2.53;;
12631;SDS011;6381;45.748;12.106;2022-08-07T01:11:27;2.55;;;2.35;;
12631;SDS011;6381;45.748;12.106;2022-08-07T01:14:16;2.50;;;2.28;;
12631;SDS011;6381;45.748;12.106;2022-08-07T01:16:54;5.93;;;2.70;;
12631;SDS011;6381;45.748;12.106;2022-08-07T01:19:26;2.60;;;2.40;;
12631;SDS011;6381;45.748;12.106;2022-08-07T01:21:59;2.28;;;2.08;;
12631;SDS011;6381;45.748;12.106;2022-08-07T01:24:38;4.55;;;2.67;;
12631;SDS011;6381;45.748;12.106;2022-08-07T01:27:08;4.00;;;2.50;;
12631;SDS011;6381;45.748;12.106;2022-08-07T01:29:46;2.50;;;2.20;;
12631;SDS011;6381;45.748;12.106;2022-08-07T01:32:18;3.53;;;2.72;;
12631;SDS011;6381;45.748;12.106;2022-08-07T01:34:51;2.45;;;2.25;;
12631;SDS011;6381;45.748;12.106;2022-08-07T01:37:23;3.42;;;2.63;;
12631;SDS011;6381;45.748;12.106;2022-08-07T01:39:57;3.25;;;2.50;;
12631;SDS011;6381;45.748;12.106;2022-08-07T01:42:33;2.80;;;2.40;;
12631;SDS011;6381;45.748;12.106;2022-08-07T01:45:22;3.03;;;2.72;;
12631;SDS011;6381;45.748;12.106;2022-08-07T01:48:14;4.65;;;2.50;;
12631;SDS011;6381;45.748;12.106;2022-08-07T01:50:57;2.70;;;2.50;;
12631;SDS011;6381;45.748;12.106;2022-08-07T01:53:51;2.58;;;2.38;;
12631;SDS011;6381;45.748;12.106;2022-08-07T01:56:36;2.50;;;2.30;;
12631;SDS011;6381;45.748;12.106;2022-08-07T01:59:17;3.08;;;2.63;;
12631;SDS011;6381;45.748;12.106;2022-08-07T02:02:00;3.63;;;2.42;;
12631;SDS011;6381;45.748;12.106;2022-08-07T02:04:37;3.72;;;2.28;;
12631;SDS011;6381;45.748;12.106;2022-08-07T02:07:22;3.55;;;2.22;;
12631;SDS011;6381;45.748;12.106;2022-08-07T02:10:21;2.50;;;2.30;;
12631;SDS011;6381;45.748;12.106;2022-08-07T02:12:52;3.50;;;2.50;;
12631;SDS011;6381;45.748;12.106;2022-08-07T02:15:33;2.30;;;2.10;;
12631;SDS011;6381;45.748;12.106;2022-08-07T02:18:04;8.32;;;2.60;;
12631;SDS011;6381;45.748;12.106;2022-08-07T02:20:37;2.97;;;2.35;;
12631;SDS011;6381;45.748;12.106;2022-08-07T02:23:14;6.60;;;2.80;;
12631;SDS011;6381;45.748;12.106;2022-08-07T02:25:51;2.83;;;2.30;;
12631;SDS011;6381;45.748;12.106;2022-08-07T02:28:41;2.55;;;2.33;;
12631;SDS011;6381;45.748;12.106;2022-08-07T02:31:11;2.65;;;2.45;;
12631;SDS011;6381;45.748;12.106;2022-08-07T02:33:55;3.25;;;2.63;;
12631;SDS011;6381;45.748;12.106;2022-08-07T02:36:34;3.60;;;2.63;;
12631;SDS011;6381;45.748;12.106;2022-08-07T02:39:13;4.38;;;2.45;;
12631;SDS011;6381;45.748;12.106;2022-08-07T02:42:05;4.60;;;2.83;;
12631;SDS011;6381;45.748;12.106;2022-08-07T02:44:43;5.07;;;2.40;;
12631;SDS011;6381;45.748;12.106;2022-08-07T02:47:22;3.28;;;2.88;;
12631;SDS011;6381;45.748;12.106;2022-08-07T02:50:00;2.70;;;2.50;;
12631;SDS011;6381;45.748;12.106;2022-08-07T02:52:33;2.70;;;2.50;;
12631;SDS011;6381;45.748;12.106;2022-08-07T02:55:06;2.70;;;2.50;;
12631;SDS011;6381;45.748;12.106;2022-08-07T02:57:57;3.22;;;2.70;;
12631;SDS011;6381;45.748;12.106;2022-08-07T03:00:31;3.95;;;3.15;;
12631;SDS011;6381;45.748;12.106;2022-08-07T03:03:06;6.45;;;3.22;;
12631;SDS011;6381;45.748;12.106;2022-08-07T03:05:43;5.43;;;3.75;;
12631;SDS011;6381;45.748;12.106;2022-08-07T03:08:14;5.43;;;3.78;;
12631;SDS011;6381;45.748;12.106;2022-08-07T03:10:53;4.13;;;3.72;;
12631;SDS011;6381;45.748;12.106;2022-08-07T03:13:31;6.35;;;3.70;;
12631;SDS011;6381;45.748;12.106;2022-08-07T03:16:07;5.38;;;3.95;;
12631;SDS011;6381;45.748;12.106;2022-08-07T03:18:38;4.40;;;4.00;;
12631;SDS011;6381;45.748;12.106;2022-08-07T03:21:10;5.35;;;3.92;;
12631;SDS011;6381;45.748;12.106;2022-08-07T03:23:45;4.07;;;3.67;;
12631;SDS011;6381;45.748;12.106;2022-08-07T03:26:35;4.63;;;3.85;;
12631;SDS011;6381;45.748;12.106;2022-08-07T03:29:19;4.57;;;3.72;;
12631;SDS011;6381;45.748;12.106;2022-08-07T03:31:53;4.95;;;3.97;;
12631;SDS011;6381;45.748;12.106;2022-08-07T03:34:24;4.28;;;3.55;;
12631;SDS011;6381;45.748;12.106;2022-08-07T03:36:57;4.53;;;3.33;;
12631;SDS011;6381;45.748;12.106;2022-08-07T03:39:41;5.28;;;3.58;;
12631;SDS011;6381;45.748;12.106;2022-08-07T03:42:34;3.67;;;3.10;;
12631;SDS011;6381;45.748;12.106;2022-08-07T03:45:07;3.40;;;3.10;;
12631;SDS011;6381;45.748;12.106;2022-08-07T03:47:37;4.90;;;3.22;;
12631;SDS011;6381;45.748;12.106;2022-08-07T03:50:19;3.45;;;3.10;;
12631;SDS011;6381;45.748;12.106;2022-08-07T03:52:51;3.10;;;2.80;;
12631;SDS011;6381;45.748;12.106;2022-08-07T03:55:21;3.22;;;2.88;;
12631;SDS011;6381;45.748;12.106;2022-08-07T03:58:09;3.28;;;2.95;;
12631;SDS011;6381;45.748;12.106;2022-08-07T04:01:00;7.93;;;2.90;;
12631;SDS011;6381;45.748;12.106;2022-08-07T04:03:38;3.30;;;2.67;;
12631;SDS011;6381;45.748;12.106;2022-08-07T04:06:23;3.70;;;2.88;;
12631;SDS011;6381;45.748;12.106;2022-08-07T04:09:11;3.17;;;2.50;;
12631;SDS011;6381;45.748;12.106;2022-08-07T04:11:44;3.05;;;2.50;;
12631;SDS011;6381;45.748;12.106;2022-08-07T04:14:35;2.60;;;2.40;;
12631;SDS011;6381;45.748;12.106;2022-08-07T04:17:17;2.63;;;2.42;;
12631;SDS011;6381;45.748;12.106;2022-08-07T04:19:54;3.88;;;2.63;;
12631;SDS011;6381;45.748;12.106;2022-08-07T04:22:25;2.60;;;2.20;;
12631;SDS011;6381;45.748;12.106;2022-08-07T04:25:00;4.25;;;2.15;;
12631;SDS011;6381;45.748;12.106;2022-08-07T04:27:35;4.30;;;2.95;;
12631;SDS011;6381;45.748;12.106;2022-08-07T04:30:15;2.40;;;2.20;;
12631;SDS011;6381;45.748;12.106;2022-08-07T04:33:08;3.75;;;2.30;;
12631;SDS011;6381;45.748;12.106;2022-08-07T04:35:44;2.22;;;2.03;;
12631;SDS011;6381;45.748;12.106;2022-08-07T04:38:20;2.50;;;2.30;;
12631;SDS011;6381;45.748;12.106;2022-08-07T04:40:50;2.35;;;2.15;;
12631;SDS011;6381;45.748;12.106;2022-08-07T04:43:48;2.30;;;2.10;;
12631;SDS011;6381;45.748;12.106;2022-08-07T04:46:43;2.40;;;2.10;;
12631;SDS011;6381;45.748;12.106;2022-08-07T04:49:40;2.47;;;2.28;;
12631;SDS011;6381;45.748;12.106;2022-08-07T04:52:26;3.78;;;2.22;;
12631;SDS011;6381;45.748;12.106;2022-08-07T04:55:02;2.30;;;2.10;;
12631;SDS011;6381;45.748;12.106;2022-08-07T04:58:08;2.70;;;2.20;;
12631;SDS011;6381;45.748;12.106;2022-08-07T05:01:06;2.60;;;2.40;;
12631;SDS011;6381;45.748;12.106;2022-08-07T05:03:45;3.65;;;2.30;;
12631;SDS011;6381;45.748;12.106;2022-08-07T05:06:39;2.55;;;2.20;;
12631;SDS011;6381;45.748;12.106;2022-08-07T05:09:23;2.50;;;2.30;;
12631;SDS011;6381;45.748;12.106;2022-08-07T05:12:18;2.97;;;2.30;;
12631;SDS011;6381;45.748;12.106;2022-08-07T05:14:59;3.00;;;2.13;;
12631;SDS011;6381;45.748;12.106;2022-08-07T05:17:52;3.58;;;2.10;;
12631;SDS011;6381;45.748;12.106;2022-08-07T05:20:30;5.80;;;2.30;;
12631;SDS011;6381;45.748;12.106;2022-08-07T05:23:04;3.85;;;1.92;;
12631;SDS011;6381;45.748;12.106;2022-08-07T05:25:43;2.28;;;1.98;;
12631;SDS011;6381;45.748;12.106;2022-08-07T05:28:33;2.78;;;2.40;;
12631;SDS011;6381;45.748;12.106;2022-08-07T05:31:09;4.32;;;2.50;;
12631;SDS011;6381;45.748;12.106;2022-08-07T05:33:44;5.00;;;2.40;;
12631;SDS011;6381;45.748;12.106;2022-08-07T05:36:32;3.17;;;2.40;;
12631;SDS011;6381;45.748;12.106;2022-08-07T05:39:13;2.10;;;1.95;;
12631;SDS011;6381;45.748;12.106;2022-08-07T05:42:04;2.95;;;2.30;;
12631;SDS011;6381;45.748;12.106;2022-08-07T05:44:41;2.42;;;2.22;;
12631;SDS011;6381;45.748;12.106;2022-08-07T05:47:30;2.50;;;2.30;;
12631;SDS011;6381;45.748;12.106;2022-08-07T05:50:16;2.75;;;2.50;;
12631;SDS011;6381;45.748;12.106;2022-08-07T05:52:46;2.90;;;2.60;;
12631;SDS011;6381;45.748;12.106;2022-08-07T05:55:17;2.72;;;2.53;;
12631;SDS011;6381;45.748;12.106;2022-08-07T05:57:46;3.05;;;2.17;;
12631;SDS011;6381;45.748;12.106;2022-08-07T06:00:16;2.60;;;2.40;;
12631;SDS011;6381;45.748;12.106;2022-08-07T06:02:54;2.40;;;2.20;;
12631;SDS011;6381;45.748;12.106;2022-08-07T06:05:26;2.45;;;2.20;;
12631;SDS011;6381;45.748;12.106;2022-08-07T06:08:04;2.58;;;2.25;;
12631;SDS011;6381;45.748;12.106;2022-08-07T06:10:54;3.10;;;2.15;;
12631;SDS011;6381;45.748;12.106;2022-08-07T06:13:24;2.50;;;2.03;;
12631;SDS011;6381;45.748;12.106;2022-08-07T06:16:13;2.40;;;2.20;;
12631;SDS011;6381;45.748;12.106;2022-08-07T06:18:43;3.03;;;2.30;;
12631;SDS011;6381;45.748;12.106;2022-08-07T06:21:23;2.30;;;2.10;;
12631;SDS011;6381;45.748;12.106;2022-08-07T06:24:12;3.00;;;2.38;;
12631;SDS011;6381;45.748;12.106;2022-08-07T06:27:03;3.60;;;2.42;;
12631;SDS011;6381;45.748;12.106;2022-08-07T06:29:33;2.55;;;2.28;;
12631;SDS011;6381;45.748;12.106;2022-08-07T06:32:06;2.30;;;2.10;;
12631;SDS011;6381;45.748;12.106;2022-08-07T06:34:39;2.60;;;2.40;;
12631;SDS011;6381;45.748;12.106;2022-08-07T06:37:11;2.75;;;2.50;;
12631;SDS011;6381;45.748;12.106;2022-08-07T06:39:47;2.50;;;2.30;;
12631;SDS011;6381;45.748;12.106;2022-08-07T06:42:37;2.70;;;2.50;;
12631;SDS011;6381;45.748;12.106;2022-08-07T06:45:23;2.80;;;2.60;;
12631;SDS011;6381;45.748;12.106;2022-08-07T06:47:57;2.67;;;2.47;;
12631;SDS011;6381;45.748;12.106;2022-08-07T06:50:33;3.47;;;2.50;;
12631;SDS011;6381;45.748;12.106;2022-08-07T06:53:11;2.80;;;2.60;;
12631;SDS011;6381;45.748;12.106;2022-08-07T06:56:02;3.17;;;2.20;;
12631;SDS011;6381;45.748;12.106;2022-08-07T06:58:43;3.17;;;2.78;;
12631;SDS011;6381;45.748;12.106;2022-08-07T07:01:40;2.45;;;2.25;;
12631;SDS011;6381;45.748;12.106;2022-08-07T07:04:17;2.63;;;2.40;;
12631;SDS011;6381;45.748;12.106;2022-08-07T07:06:59;2.85;;;2.60;;
12631;SDS011;6381;45.748;12.106;2022-08-07T07:09:45;4.00;;;2.60;;
12631;SDS011;6381;45.748;12.106;2022-08-07T07:12:18;3.17;;;2.40;;
12631;SDS011;6381;45.748;12.106;2022-08-07T07:15:04;2.70;;;2.50;;
12631;SDS011;6381;45.748;12.106;2022-08-07T07:17:53;2.55;;;2.35;;
12631;SDS011;6381;45.748;12.106;2022-08-07T07:20:28;2.58;;;2.20;;
12631;SDS011;6381;45.748;12.106;2022-08-07T07:23:03;3.55;;;2.72;;
12631;SDS011;6381;45.748;12.106;2022-08-07T07:25:54;2.60;;;2.40;;
12631;SDS011;6381;45.748;12.106;2022-08-07T07:28:47;3.03;;;2.63;;
12631;SDS011;6381;45.748;12.106;2022-08-07T07:31:42;2.45;;;2.22;;
12631;SDS011;6381;45.748;12.106;2022-08-07T07:34:19;3.05;;;2.33;;
12631;SDS011;6381;45.748;12.106;2022-08-07T07:36:56;3.80;;;2.40;;
12631;SDS011;6381;45.748;12.106;2022-08-07T07:39:47;2.90;;;2.60;;
12631;SDS011;6381;45.748;12.106;2022-08-07T07:42:21;2.78;;;2.40;;
12631;SDS011;6381;45.748;12.106;2022-08-07T07:44:58;4.25;;;2.50;;
12631;SDS011;6381;45.748;12.106;2022-08-07T07:47:31;3.45;;;2.50;;
12631;SDS011;6381;45.748;12.106;2022-08-07T07:50:17;2.83;;;2.63;;
12631;SDS011;6381;45.748;12.106;2022-08-07T07:53:04;2.83;;;2.55;;
12631;SDS011;6381;45.748;12.106;2022-08-07T07:55:49;2.70;;;2.50;;
12631;SDS011;6381;45.748;12.106;2022-08-07T07:58:27;2.78;;;2.58;;
12631;SDS011;6381;45.748;12.106;2022-08-07T08:01:05;3.97;;;2.70;;
12631;SDS011;6381;45.748;12.106;2022-08-07T08:03:59;3.10;;;2.80;;
12631;SDS011;6381;45.748;12.106;2022-08-07T08:06:37;3.10;;;2.53;;
12631;SDS011;6381;45.748;12.106;2022-08-07T08:09:18;2.90;;;2.58;;
12631;SDS011;6381;45.748;12.106;2022-08-07T08:11:49;3.28;;;2.22;;
12631;SDS011;6381;45.748;12.106;2022-08-07T08:14:29;2.75;;;2.55;;
12631;SDS011;6381;45.748;12.106;2022-08-07T08:17:02;2.75;;;2.55;;
12631;SDS011;6381;45.748;12.106;2022-08-07T08:19:55;2.85;;;2.55;;
12631;SDS011;6381;45.748;12.106;2022-08-07T08:22:47;5.75;;;3.10;;
12631;SDS011;6381;45.748;12.106;2022-08-07T08:25:35;2.58;;;2.38;;
12631;SDS011;6381;45.748;12.106;2022-08-07T08:28:34;2.42;;;2.22;;
12631;SDS011;6381;45.748;12.106;2022-08-07T08:31:11;3.42;;;3.08;;
12631;SDS011;6381;45.748;12.106;2022-08-07T08:34:04;2.70;;;2.50;;
12631;SDS011;6381;45.748;12.106;2022-08-07T08:36:39;3.00;;;2.70;;
12631;SDS011;6381;45.748;12.106;2022-08-07T08:39:11;3.13;;;2.60;;
12631;SDS011;6381;45.748;12.106;2022-08-07T08:41:42;2.85;;;2.45;;
12631;SDS011;6381;45.748;12.106;2022-08-07T08:44:26;2.72;;;2.53;;
12631;SDS011;6381;45.748;12.106;2022-08-07T08:47:13;2.97;;;2.70;;
12631;SDS011;6381;45.748;12.106;2022-08-07T08:49:52;2.63;;;2.42;;
12631;SDS011;6381;45.748;12.106;2022-08-07T08:52:32;2.70;;;2.50;;
12631;SDS011;6381;45.748;12.106;2022-08-07T08:55:20;3.00;;;2.75;;
12631;SDS011;6381;45.748;12.106;2022-08-07T08:58:15;3.28;;;2.97;;
12631;SDS011;6381;45.748;12.106;2022-08-07T09:00:57;3.17;;;2.88;;
12631;SDS011;6381;45.748;12.106;2022-08-07T09:03:47;2.90;;;2.60;;
12631;SDS011;6381;45.748;12.106;2022-08-07T09:06:28;4.68;;;2.88;;
12631;SDS011;6381;45.748;12.106;2022-08-07T09:09:11;3.53;;;2.80;;
12631;SDS011;6381;45.748;12.106;2022-08-07T09:11:57;2.63;;;2.42;;
12631;SDS011;6381;45.748;12.106;2022-08-07T09:14:58;2.70;;;2.50;;
12631;SDS011;6381;45.748;12.106;2022-08-07T09:17:53;3.10;;;2.50;;
12631;SDS011;6381;45.748;12.106;2022-08-07T09:20:41;2.85;;;2.65;;
12631;SDS011;6381;45.748;12.106;2022-08-07T09:23:30;2.60;;;2.40;;
12631;SDS011;6381;45.748;12.106;2022-08-07T09:26:32;2.92;;;2.72;;
12631;SDS011;6381;45.748;12.106;2022-08-07T09:29:19;3.28;;;2.58;;
12631;SDS011;6381;45.748;12.106;2022-08-07T09:32:16;3.00;;;2.80;;
12631;SDS011;6381;45.748;12.106;2022-08-07T09:34:59;3.78;;;2.78;;
12631;SDS011;6381;45.748;12.106;2022-08-07T09:37:57;3.50;;;2.80;;
12631;SDS011;6381;45.748;12.106;2022-08-07T09:40:39;3.13;;;2.83;;
12631;SDS011;6381;45.748;12.106;2022-08-07T09:43:19;3.25;;;2.95;;
12631;SDS011;6381;45.748;12.106;2022-08-07T09:46:07;3.78;;;3.38;;
12631;SDS011;6381;45.748;12.106;2022-08-07T09:49:15;4.90;;;3.40;;
12631;SDS011;6381;45.748;12.106;2022-08-07T09:52:15;4.38;;;3.20;;
12631;SDS011;6381;45.748;12.106;2022-08-07T09:55:03;4.88;;;3.83;;
12631;SDS011;6381;45.748;12.106;2022-08-07T10:01:01;5.25;;;4.78;;
12631;SDS011;6381;45.748;12.106;2022-08-07T10:04:00;6.88;;;6.28;;
12631;SDS011;6381;45.748;12.106;2022-08-07T10:10:06;9.68;;;7.15;;
12631;SDS011;6381;45.748;12.106;2022-08-07T10:16:07;9.82;;;6.07;;
12631;SDS011;6381;45.748;12.106;2022-08-07T10:18:51;5.78;;;5.28;;
12631;SDS011;6381;45.748;12.106;2022-08-07T10:21:39;5.00;;;4.60;;
12631;SDS011;6381;45.748;12.106;2022-08-07T10:24:40;4.97;;;4.47;;
12631;SDS011;6381;45.748;12.106;2022-08-07T10:27:40;4.57;;;4.18;;
12631;SDS011;6381;45.748;12.106;2022-08-07T10:30:23;3.90;;;3.55;;
12631;SDS011;6381;45.748;12.106;2022-08-07T10:36:31;3.97;;;3.65;;
12631;SDS011;6381;45.748;12.106;2022-08-07T10:39:08;3.85;;;3.55;;
12631;SDS011;6381;45.748;12.106;2022-08-07T10:42:10;3.60;;;3.30;;
12631;SDS011;6381;45.748;12.106;2022-08-07T10:45:09;5.63;;;3.38;;
12631;SDS011;6381;45.748;12.106;2022-08-07T10:47:46;4.32;;;3.55;;
12631;SDS011;6381;45.748;12.106;2022-08-07T10:50:30;3.38;;;3.13;;
12631;SDS011;6381;45.748;12.106;2022-08-07T10:53:05;3.55;;;3.25;;
12631;SDS011;6381;45.748;12.106;2022-08-07T10:55:48;2.97;;;2.78;;
12631;SDS011;6381;45.748;12.106;2022-08-07T10:58:25;3.85;;;3.30;;
12631;SDS011;6381;45.748;12.106;2022-08-07T11:01:10;4.85;;;3.50;;
12631;SDS011;6381;45.748;12.106;2022-08-07T11:04:02;3.33;;;3.13;;
12631;SDS011;6381;45.748;12.106;2022-08-07T11:06:58;4.13;;;3.30;;
12631;SDS011;6381;45.748;12.106;2022-08-07T11:09:53;3.70;;;3.40;;
12631;SDS011;6381;45.748;12.106;2022-08-07T11:12:37;4.05;;;3.45;;
12631;SDS011;6381;45.748;12.106;2022-08-07T11:15:16;3.45;;;3.15;;
12631;SDS011;6381;45.748;12.106;2022-08-07T11:17:58;3.60;;;3.30;;
12631;SDS011;6381;45.748;12.106;2022-08-07T11:20:34;4.03;;;3.65;;
12631;SDS011;6381;45.748;12.106;2022-08-07T11:23:10;4.80;;;3.95;;
12631;SDS011;6381;45.748;12.106;2022-08-07T11:26:00;4.05;;;3.72;;
12631;SDS011;6381;45.748;12.106;2022-08-07T11:28:39;4.45;;;4.05;;
12631;SDS011;6381;45.748;12.106;2022-08-07T11:31:23;4.95;;;4.55;;
12631;SDS011;6381;45.748;12.106;2022-08-07T11:34:03;4.78;;;4.38;;
12631;SDS011;6381;45.748;12.106;2022-08-07T11:36:46;5.20;;;4.07;;
12631;SDS011;6381;45.748;12.106;2022-08-07T11:39:31;5.15;;;4.18;;
12631;SDS011;6381;45.748;12.106;2022-08-07T11:42:32;5.30;;;4.03;;
12631;SDS011;6381;45.748;12.106;2022-08-07T11:45:10;4.18;;;3.85;;
12631;SDS011;6381;45.748;12.106;2022-08-07T11:47:52;5.63;;;5.13;;
12631;SDS011;6381;45.748;12.106;2022-08-07T11:50:56;5.70;;;5.20;;
12631;SDS011;6381;45.748;12.106;2022-08-07T11:53:38;5.63;;;5.13;;
12631;SDS011;6381;45.748;12.106;2022-08-07T11:56:32;6.57;;;5.72;;
12631;SDS011;6381;45.748;12.106;2022-08-07T11:59:32;7.72;;;5.80;;
12631;SDS011;6381;45.748;12.106;2022-08-07T12:02:50;7.97;;;5.90;;
12631;SDS011;6381;45.748;12.106;2022-08-07T12:06:11;6.95;;;6.43;;
12631;SDS011;6381;45.748;12.106;2022-08-07T12:09:07;8.18;;;7.38;;
12631;SDS011;6381;45.748;12.106;2022-08-07T12:11:51;7.15;;;6.45;;
12631;SDS011;6381;45.748;12.106;2022-08-07T12:14:41;7.20;;;6.50;;
12631;SDS011;6381;45.748;12.106;2022-08-07T12:17:22;7.55;;;6.80;;
12631;SDS011;6381;45.748;12.106;2022-08-07T12:20:02;7.07;;;6.45;;
12631;SDS011;6381;45.748;12.106;2022-08-07T12:22:56;7.95;;;6.88;;
12631;SDS011;6381;45.748;12.106;2022-08-07T12:26:08;8.13;;;7.32;;
12631;SDS011;6381;45.748;12.106;2022-08-07T12:28:51;8.40;;;7.72;;
12631;SDS011;6381;45.748;12.106;2022-08-07T12:31:34;8.65;;;7.80;;
12631;SDS011;6381;45.748;12.106;2022-08-07T12:34:28;8.95;;;8.10;;
12631;SDS011;6381;45.748;12.106;2022-08-07T12:37:00;8.82;;;8.02;;
12631;SDS011;6381;45.748;12.106;2022-08-07T12:39:43;9.82;;;8.82;;
12631;SDS011;6381;45.748;12.106;2022-08-07T12:42:19;10.02;;;9.23;;
12631;SDS011;6381;45.748;12.106;2022-08-07T12:44:57;9.23;;;8.52;;
12631;SDS011;6381;45.748;12.106;2022-08-07T12:47:37;9.80;;;8.85;;
12631;SDS011;6381;45.748;12.106;2022-08-07T12:50:18;9.13;;;8.23;;
12631;SDS011;6381;45.748;12.106;2022-08-07T13:25:24;4.50;;;4.20;;
12631;SDS011;6381;45.748;12.106;2022-08-07T13:28:01;4.70;;;4.30;;
12631;SDS011;6381;45.748;12.106;2022-08-07T13:30:41;5.45;;;4.07;;
12631;SDS011;6381;45.748;12.106;2022-08-07T13:33:28;4.53;;;4.13;;
12631;SDS011;6381;45.748;12.106;2022-08-07T13:36:36;5.22;;;4.78;;
12631;SDS011;6381;45.748;12.106;2022-08-07T14:10:15;11.77;;;3.70;;
12631;SDS011;6381;45.748;12.106;2022-08-07T14:12:54;2.92;;;2.72;;
12631;SDS011;6381;45.748;12.106;2022-08-07T14:15:28;3.28;;;2.97;;
12631;SDS011;6381;45.748;12.106;2022-08-07T14:18:02;4.10;;;3.17;;
12631;SDS011;6381;45.748;12.106;2022-08-07T14:36:52;3.97;;;2.92;;
12631;SDS011;6381;45.748;12.106;2022-08-07T14:39:22;2.55;;;2.35;;
12631;SDS011;6381;45.748;12.106;2022-08-07T14:42:13;2.88;;;2.67;;
12631;SDS011;6381;45.748;12.106;2022-08-07T14:44:49;3.28;;;2.78;;
12631;SDS011;6381;45.748;12.106;2022-08-07T14:47:25;2.75;;;2.53;;
12631;SDS011;6381;45.748;12.106;2022-08-07T14:49:59;2.80;;;2.60;;
12631;SDS011;6381;45.748;12.106;2022-08-07T14:52:54;2.72;;;2.20;;
12631;SDS011;6381;45.748;12.106;2022-08-07T14:55:44;3.78;;;2.60;;
12631;SDS011;6381;45.748;12.106;2022-08-07T14:58:23;2.60;;;2.40;;
12631;SDS011;6381;45.748;12.106;2022-08-07T15:00:55;4.35;;;2.72;;
12631;SDS011;6381;45.748;12.106;2022-08-07T15:03:47;2.50;;;2.30;;
12631;SDS011;6381;45.748;12.106;2022-08-07T15:06:20;3.22;;;2.30;;
12631;SDS011;6381;45.748;12.106;2022-08-07T15:08:53;2.50;;;2.30;;
12631;SDS011;6381;45.748;12.106;2022-08-07T15:11:50;2.63;;;2.40;;
12631;SDS011;6381;45.748;12.106;2022-08-07T15:14:27;2.45;;;2.25;;
12631;SDS011;6381;45.748;12.106;2022-08-07T15:16:58;2.50;;;2.30;;
12631;SDS011;6381;45.748;12.106;2022-08-07T15:19:31;2.42;;;2.22;;
12631;SDS011;6381;45.748;12.106;2022-08-07T15:22:23;2.47;;;2.28;;
12631;SDS011;6381;45.748;12.106;2022-08-07T15:25:06;2.42;;;2.22;;
12631;SDS011;6381;45.748;12.106;2022-08-07T15:27:59;2.40;;;2.20;;
12631;SDS011;6381;45.748;12.106;2022-08-07T15:30:49;4.25;;;2.60;;
12631;SDS011;6381;45.748;12.106;2022-08-07T15:33:30;4.90;;;2.90;;
12631;SDS011;6381;45.748;12.106;2022-08-07T15:36:02;4.05;;;2.40;;
12631;SDS011;6381;45.748;12.106;2022-08-07T15:38:35;2.40;;;2.20;;
12631;SDS011;6381;45.748;12.106;2022-08-07T15:41:27;2.47;;;2.03;;
12631;SDS011;6381;45.748;12.106;2022-08-07T15:44:19;2.75;;;2.33;;
12631;SDS011;6381;45.748;12.106;2022-08-07T15:46:53;2.63;;;2.40;;
12631;SDS011;6381;45.748;12.106;2022-08-07T15:49:29;2.85;;;2.65;;
12631;SDS011;6381;45.748;12.106;2022-08-07T15:52:23;3.00;;;2.55;;
12631;SDS011;6381;45.748;12.106;2022-08-07T15:54:57;4.10;;;3.20;;
12631;SDS011;6381;45.748;12.106;2022-08-07T15:57:30;3.38;;;3.08;;
12631;SDS011;6381;45.748;12.106;2022-08-07T16:00:14;2.85;;;2.65;;
12631;SDS011;6381;45.748;12.106;2022-08-07T16:02:59;4.68;;;3.13;;
12631;SDS011;6381;45.748;12.106;2022-08-07T16:05:31;3.67;;;3.22;;
12631;SDS011;6381;45.748;12.106;2022-08-07T16:08:02;4.15;;;3.22;;
12631;SDS011;6381;45.748;12.106;2022-08-07T16:10:56;3.47;;;3.08;;
12631;SDS011;6381;45.748;12.106;2022-08-07T16:13:37;3.35;;;3.08;;
12631;SDS011;6381;45.748;12.106;2022-08-07T16:16:28;3.47;;;3.00;;
12631;SDS011;6381;45.748;12.106;2022-08-07T16:19:18;3.72;;;3.35;;
12631;SDS011;6381;45.748;12.106;2022-08-07T16:22:10;3.30;;;3.00;;
12631;SDS011;6381;45.748;12.106;2022-08-07T16:25:05;3.63;;;3.15;;
12631;SDS011;6381;45.748;12.106;2022-08-07T16:27:50;3.15;;;2.90;;
12631;SDS011;6381;45.748;12.106;2022-08-07T16:30:56;3.40;;;3.13;;
12631;SDS011;6381;45.748;12.106;2022-08-07T16:33:35;4.60;;;3.50;;
12631;SDS011;6381;45.748;12.106;2022-08-07T16:36:32;3.40;;;3.13;;
12631;SDS011;6381;45.748;12.106;2022-08-07T16:39:31;3.15;;;2.88;;
12631;SDS011;6381;45.748;12.106;2022-08-07T16:42:31;3.00;;;2.80;;
12631;SDS011;6381;45.748;12.106;2022-08-07T16:45:16;3.20;;;2.90;;
12631;SDS011;6381;45.748;12.106;2022-08-07T16:48:28;3.33;;;2.70;;
12631;SDS011;6381;45.748;12.106;2022-08-07T16:51:38;3.30;;;3.05;;
12631;SDS011;6381;45.748;12.106;2022-08-07T16:54:35;3.00;;;2.80;;
12631;SDS011;6381;45.748;12.106;2022-08-07T16:57:28;3.88;;;3.42;;
12631;SDS011;6381;45.748;12.106;2022-08-07T17:00:19;3.22;;;3.03;;
12631;SDS011;6381;45.748;12.106;2022-08-07T17:06:02;3.45;;;2.80;;
12631;SDS011;6381;45.748;12.106;2022-08-07T17:08:59;3.70;;;3.28;;
12631;SDS011;6381;45.748;12.106;2022-08-07T17:11:58;3.10;;;2.90;;
12631;SDS011;6381;45.748;12.106;2022-08-07T17:14:55;3.40;;;3.10;;
12631;SDS011;6381;45.748;12.106;2022-08-07T17:17:36;3.40;;;3.10;;
12631;SDS011;6381;45.748;12.106;2022-08-07T17:20:28;3.30;;;3.08;;
12631;SDS011;6381;45.748;12.106;2022-08-07T17:23:01;2.90;;;2.70;;
12631;SDS011;6381;45.748;12.106;2022-08-07T17:25:40;3.75;;;2.80;;
12631;SDS011;6381;45.748;12.106;2022-08-07T17:28:22;3.25;;;3.05;;
12631;SDS011;6381;45.748;12.106;2022-08-07T17:31:08;4.15;;;3.15;;
12631;SDS011;6381;45.748;12.106;2022-08-07T17:33:46;2.80;;;2.60;;
12631;SDS011;6381;45.748;12.106;2022-08-07T17:36:38;2.30;;;2.10;;
12631;SDS011;6381;45.748;12.106;2022-08-07T17:39:34;1.60;;;1.50;;
12631;SDS011;6381;45.748;12.106;2022-08-07T17:42:36;2.25;;;1.60;;
12631;SDS011;6381;45.748;12.106;2022-08-07T17:45:26;1.90;;;1.50;;
12631;SDS011;6381;45.748;12.106;2022-08-07T17:48:02;2.13;;;1.40;;
12631;SDS011;6381;45.748;12.106;2022-08-07T17:50:44;1.58;;;1.48;;
12631;SDS011;6381;45.748;12.106;2022-08-07T17:53:24;1.55;;;1.42;;
12631;SDS011;6381;45.748;12.106;2022-08-07T17:56:29;2.22;;;1.50;;
12631;SDS011;6381;45.748;12.106;2022-08-07T17:59:07;2.05;;;1.50;;